Pechenga, Russia
Current Conditions -  °F | °C
As of 3:50 PM on Saturday 25 Oct 2014 (Local Time) from ENKR Reporting Station
Broken Clouds Broken Clouds  
Wind Chill: 22°   Ceiling: 1400
Heat Index: 30°   Visibility: 6mi
Dew Point: 27°   Wind: 9mph
Humidity: 86%   Direction: 170°S
Pressure: 29.88"   Gusts: NA
Location:  69.55°N, 31.23°E
Report Text: ENKR 251250Z 17008KT 9999 BKN014 M01/M03 Q1012 RMK WIND 731FT 17011KT
Loading
Personal Weather Stations






























Interactive Weather Map
Tropical Storm Tracking
New forecast layout! Learn more

10-Day Weather Forecast

Advertisements
Track Severe Weather on mobile